createdAt,value
2023-03-18T00:02:20.105Z,136.85
2023-03-18T00:04:47.762Z,143.65
2023-03-18T00:07:15.511Z,142.93
2023-03-18T00:09:43.376Z,126.90
2023-03-18T00:12:12.434Z,144.23
2023-03-18T00:14:40.083Z,144.57
2023-03-18T00:17:08.010Z,140.80
2023-03-18T00:19:35.640Z,141.60
2023-03-18T00:22:03.788Z,142.73
2023-03-18T00:24:31.533Z,137.48
2023-03-18T00:26:59.128Z,141.73
2023-03-18T00:29:28.190Z,148.32
2023-03-18T00:31:56.098Z,146.57
2023-03-18T00:34:23.692Z,135.13
2023-03-18T00:36:56.803Z,144.05
2023-03-18T00:39:26.423Z,142.43
2023-03-18T00:41:56.215Z,127.43
2023-03-18T00:44:25.204Z,137.48
2023-03-18T00:46:54.249Z,137.60
2023-03-18T00:49:21.901Z,142.82
2023-03-18T00:51:49.584Z,135.18
2023-03-18T00:54:18.496Z,143.20
2023-03-18T00:56:46.864Z,141.05
2023-03-18T00:59:14.981Z,126.97
2023-03-18T01:01:43.682Z,134.52
2023-03-18T01:04:12.813Z,142.27
2023-03-18T01:06:40.447Z,145.38
2023-03-18T01:09:11.696Z,152.55
2023-03-18T01:11:40.385Z,158.07
2023-03-18T01:14:08.702Z,147.45
2023-03-18T01:16:36.567Z,152.07
2023-03-18T01:19:04.939Z,153.13
2023-03-18T01:21:34.712Z,138.02
2023-03-18T01:24:04.432Z,142.27
2023-03-18T01:26:34.481Z,133.02
2023-03-18T01:29:03.655Z,135.68
2023-03-18T01:31:34.562Z,147.20
2023-03-18T01:34:06.762Z,142.32
2023-03-18T01:36:46.246Z,141.63
2023-03-18T01:39:15.178Z,153.07
2023-03-18T01:41:43.082Z,134.30
2023-03-18T01:44:17.426Z,135.93
2023-03-18T01:46:48.264Z,144.77
2023-03-18T01:49:20.856Z,146.88
2023-03-18T01:51:54.171Z,152.32
2023-03-18T01:54:23.972Z,157.50
2023-03-18T01:56:53.818Z,148.90
2023-03-18T01:59:24.750Z,143.05
2023-03-18T02:01:55.989Z,159.00
2023-03-18T02:04:31.079Z,145.43
2023-03-18T02:07:01.234Z,153.52
2023-03-18T02:09:29.607Z,151.95
2023-03-18T02:11:57.623Z,153.35
2023-03-18T02:14:27.637Z,163.65
2023-03-18T02:17:03.903Z,149.35
2023-03-18T02:19:55.423Z,167.15
2023-03-18T02:22:31.972Z,169.65
2023-03-18T02:25:14.048Z,175.88
2023-03-18T02:27:45.987Z,182.90
2023-03-18T02:30:18.931Z,196.55
2023-03-18T02:32:51.814Z,182.80
2023-03-18T02:35:20.654Z,179.90
2023-03-18T02:37:49.297Z,188.93
2023-03-18T02:40:21.903Z,198.40
2023-03-18T02:42:51.437Z,192.13
2023-03-18T02:45:36.731Z,194.18
2023-03-18T02:48:16.069Z,186.68
2023-03-18T02:50:44.011Z,190.02
2023-03-18T02:53:13.782Z,193.02
2023-03-18T02:55:42.362Z,198.10
2023-03-18T02:58:11.538Z,204.23
2023-03-18T03:00:40.970Z,197.77
2023-03-18T03:03:08.821Z,188.48
2023-03-18T03:05:36.916Z,206.10
2023-03-18T03:08:05.036Z,202.60
2023-03-18T03:10:37.689Z,208.15
2023-03-18T03:13:07.384Z,214.55
2023-03-18T03:15:36.911Z,197.70
2023-03-18T03:18:05.224Z,212.00
2023-03-18T03:20:35.376Z,215.98
2023-03-18T03:23:04.085Z,218.52
2023-03-18T03:25:32.360Z,229.95
2023-03-18T03:28:00.248Z,203.15
2023-03-18T03:30:28.566Z,217.73
2023-03-18T03:33:01.378Z,218.30
2023-03-18T03:35:29.186Z,212.93
2023-03-18T03:37:56.821Z,204.73
2023-03-18T03:40:25.977Z,216.02
2023-03-18T03:42:53.674Z,205.15
2023-03-18T03:45:21.291Z,206.70
2023-03-18T03:47:49.292Z,212.90
2023-03-18T03:50:19.421Z,204.00
2023-03-18T03:52:47.162Z,195.95
2023-03-18T03:55:17.560Z,206.63
2023-03-18T03:57:45.757Z,205.18
2023-03-18T04:00:16.535Z,203.40
2023-03-18T04:02:50.039Z,185.77
2023-03-18T04:05:23.470Z,194.88
2023-03-18T04:07:52.442Z,201.13
2023-03-18T04:10:26.391Z,197.40
2023-03-18T04:12:54.316Z,191.07
2023-03-18T04:15:23.009Z,200.00
2023-03-18T04:17:53.717Z,202.88
2023-03-18T04:20:22.944Z,192.65
2023-03-18T04:22:51.344Z,207.40
2023-03-18T04:25:22.078Z,191.70
2023-03-18T04:27:53.500Z,198.70
2023-03-18T04:30:23.352Z,196.50
2023-03-18T04:33:10.796Z,179.18
2023-03-18T04:35:42.993Z,202.23
2023-03-18T04:38:12.831Z,200.75
2023-03-18T04:40:40.962Z,192.00
2023-03-18T04:43:09.882Z,207.75
2023-03-18T04:45:37.946Z,206.98
2023-03-18T04:48:06.397Z,189.40
2023-03-18T04:50:38.874Z,214.32
2023-03-18T04:53:11.235Z,210.27
2023-03-18T04:55:39.482Z,199.30
2023-03-18T04:58:09.615Z,211.52
2023-03-18T05:00:42.435Z,196.00
2023-03-18T05:03:21.773Z,197.73
2023-03-18T05:05:50.589Z,195.10
2023-03-18T05:08:23.649Z,178.85
2023-03-18T05:10:52.339Z,189.95
2023-03-18T05:13:20.420Z,197.18
2023-03-18T05:15:48.584Z,188.15
2023-03-18T05:18:17.073Z,178.93
2023-03-18T05:20:48.852Z,186.90
2023-03-18T05:23:18.543Z,198.20
2023-03-18T05:25:55.957Z,203.32
2023-03-18T05:28:27.039Z,188.13
2023-03-18T05:31:20.971Z,194.95
2023-03-18T05:33:48.987Z,186.07
2023-03-18T05:36:17.399Z,179.85
2023-03-18T05:38:55.494Z,165.90
2023-03-18T05:41:25.674Z,167.13
2023-03-18T05:43:54.158Z,152.23
2023-03-18T05:46:22.785Z,149.25
2023-03-18T05:48:59.776Z,135.73
2023-03-18T05:51:32.444Z,146.40
2023-03-18T05:54:01.330Z,140.93
2023-03-18T05:56:35.083Z,135.07
2023-03-18T05:59:06.545Z,133.65
2023-03-18T06:01:46.965Z,146.13
2023-03-18T06:04:15.312Z,144.95
2023-03-18T06:06:43.456Z,128.48
2023-03-18T06:09:13.218Z,129.98
2023-03-18T06:11:45.468Z,122.78
2023-03-18T06:14:14.325Z,129.50
2023-03-18T06:16:43.276Z,126.47
2023-03-18T06:19:13.056Z,130.48
2023-03-18T06:21:42.025Z,127.38
2023-03-18T06:24:10.665Z,123.40
2023-03-18T06:26:39.741Z,133.80
2023-03-18T06:29:10.723Z,129.15
2023-03-18T06:31:39.689Z,127.45
2023-03-18T06:34:10.111Z,121.47
2023-03-18T06:36:40.205Z,115.95
2023-03-18T06:39:13.916Z,122.15
2023-03-18T06:41:42.702Z,120.00
2023-03-18T06:44:31.772Z,109.03
2023-03-18T06:47:08.851Z,109.30
2023-03-18T06:49:39.721Z,108.35
2023-03-18T06:52:13.487Z,112.05
2023-03-18T06:54:44.469Z,111.47
2023-03-18T06:57:12.390Z,111.18
2023-03-18T06:59:41.950Z,110.78
2023-03-18T07:02:11.137Z,108.40
2023-03-18T07:04:38.927Z,103.50
2023-03-18T07:07:07.134Z,104.80
2023-03-18T07:09:37.486Z,113.07
2023-03-18T07:12:06.360Z,103.88
2023-03-18T07:14:34.084Z,101.65
2023-03-18T07:17:03.878Z,103.72
2023-03-18T07:19:32.983Z,110.65
2023-03-18T07:22:02.287Z,104.22
2023-03-18T07:24:30.359Z,99.93
2023-03-18T07:26:58.743Z,111.85
2023-03-18T07:29:26.368Z,111.35
2023-03-18T07:31:54.036Z,98.45
2023-03-18T07:34:23.344Z,113.55
2023-03-18T07:36:51.010Z,111.20
2023-03-18T07:39:18.672Z,106.72
2023-03-18T07:41:46.320Z,107.30
2023-03-18T07:44:21.711Z,104.43
2023-03-18T07:46:49.355Z,105.60
2023-03-18T07:49:17.036Z,103.22
2023-03-18T07:51:46.056Z,100.45
2023-03-18T07:54:14.214Z,106.40
2023-03-18T07:56:41.862Z,102.30
2023-03-18T07:59:10.318Z,109.63
2023-03-18T08:01:38.998Z,116.00
2023-03-18T08:04:06.896Z,113.88
2023-03-18T08:06:34.996Z,118.93
2023-03-18T08:09:04.930Z,115.18
2023-03-18T08:11:33.741Z,114.03
2023-03-18T08:14:01.573Z,114.60
2023-03-18T08:16:29.569Z,112.70
2023-03-18T08:18:57.197Z,113.95
2023-03-18T08:21:24.931Z,107.18
2023-03-18T08:23:52.589Z,107.43
2023-03-18T08:26:21.532Z,111.13
2023-03-18T08:28:49.207Z,110.57
2023-03-18T08:31:16.862Z,115.57
2023-03-18T08:33:44.547Z,108.97
2023-03-18T08:36:12.228Z,102.78
2023-03-18T08:38:39.976Z,119.88
2023-03-18T08:41:07.704Z,103.53
2023-03-18T08:43:38.958Z,109.20
2023-03-18T08:46:07.099Z,115.50
2023-03-18T08:48:35.039Z,115.85
2023-03-18T08:51:04.819Z,117.03
2023-03-18T08:53:32.497Z,109.72
2023-03-18T08:56:02.848Z,113.97
2023-03-18T08:58:30.600Z,107.78
2023-03-18T09:00:59.597Z,112.50
2023-03-18T09:03:27.421Z,120.10
2023-03-18T09:05:55.405Z,110.80
2023-03-18T09:08:23.557Z,103.20
2023-03-18T09:10:53.359Z,101.68
2023-03-18T09:13:21.269Z,96.32
2023-03-18T09:15:48.983Z,99.00
2023-03-18T09:18:19.178Z,98.28
2023-03-18T09:20:47.409Z,100.40
2023-03-18T09:23:18.159Z,95.90
2023-03-18T09:25:46.838Z,98.03
2023-03-18T09:28:14.814Z,91.85
2023-03-18T09:30:42.632Z,85.70
2023-03-18T09:33:11.706Z,102.47
2023-03-18T09:35:41.164Z,94.32
2023-03-18T09:38:09.083Z,90.55
2023-03-18T09:40:38.831Z,90.90
2023-03-18T09:43:21.711Z,94.20
2023-03-18T09:45:59.956Z,83.43
2023-03-18T09:48:49.201Z,87.53
2023-03-18T09:51:34.902Z,91.80
2023-03-18T09:54:06.857Z,94.82
2023-03-18T09:56:37.693Z,88.97
2023-03-18T09:59:12.972Z,89.88
2023-03-18T10:01:42.062Z,91.00
2023-03-18T10:04:18.180Z,95.28
2023-03-18T10:06:50.046Z,97.28
2023-03-18T10:09:24.286Z,83.70
2023-03-18T10:11:54.766Z,91.20
2023-03-18T10:14:36.251Z,87.75
2023-03-18T10:17:13.345Z,93.50
2023-03-18T10:19:46.293Z,92.47
2023-03-18T10:22:29.840Z,89.32
2023-03-18T10:25:04.614Z,95.35
2023-03-18T10:27:42.755Z,92.50
2023-03-18T10:30:29.993Z,87.53
2023-03-18T10:33:04.905Z,90.70
2023-03-18T10:35:39.654Z,86.55
2023-03-18T10:38:19.129Z,92.88
2023-03-18T10:40:47.915Z,92.57
2023-03-18T10:43:19.397Z,95.13
2023-03-18T10:45:48.647Z,91.63
2023-03-18T10:48:22.209Z,89.25
2023-03-18T10:51:01.907Z,90.80
2023-03-18T10:53:39.116Z,94.57
2023-03-18T10:56:10.335Z,86.88
2023-03-18T10:58:39.123Z,96.10
2023-03-18T11:01:08.671Z,91.75
2023-03-18T11:03:42.059Z,96.93
2023-03-18T11:06:19.027Z,105.95
2023-03-18T11:08:50.241Z,100.70
2023-03-18T11:11:26.761Z,102.22
2023-03-18T11:13:56.243Z,107.50
2023-03-18T11:16:31.803Z,107.60
2023-03-18T11:18:59.865Z,109.63
2023-03-18T11:21:29.645Z,109.28
2023-03-18T11:24:10.575Z,116.10
2023-03-18T11:26:53.416Z,105.70
2023-03-18T11:29:24.904Z,111.05
2023-03-18T11:31:57.984Z,115.50
2023-03-18T11:34:26.982Z,122.55
2023-03-18T11:36:59.042Z,127.13
2023-03-18T11:39:31.120Z,126.72
2023-03-18T11:42:00.256Z,118.00
2023-03-18T11:44:33.082Z,126.47
2023-03-18T11:47:05.685Z,120.50
2023-03-18T11:49:34.391Z,119.28
2023-03-18T11:52:29.428Z,133.88
2023-03-18T11:55:31.709Z,120.38
2023-03-18T11:58:25.935Z,123.68
2023-03-18T12:01:01.578Z,117.97
2023-03-18T12:03:56.708Z,122.20
2023-03-18T12:06:26.111Z,111.43
2023-03-18T12:09:04.963Z,120.15
2023-03-18T12:11:48.826Z,130.77
2023-03-18T12:14:25.783Z,126.78
2023-03-18T12:17:03.764Z,128.27
2023-03-18T12:19:46.791Z,126.93
2023-03-18T12:22:28.917Z,123.88
2023-03-18T12:25:14.025Z,132.43
2023-03-18T12:27:53.478Z,127.25
2023-03-18T12:30:39.427Z,131.93
2023-03-18T12:33:24.060Z,118.75
2023-03-18T12:36:00.675Z,126.68
2023-03-18T12:38:45.797Z,121.38
2023-03-18T12:41:18.415Z,124.22
2023-03-18T12:44:03.855Z,125.47
2023-03-18T12:46:34.817Z,115.28
2023-03-18T12:49:09.645Z,111.50
2023-03-18T12:51:44.794Z,119.88
2023-03-18T12:54:18.953Z,127.00
2023-03-18T12:56:52.827Z,120.68
2023-03-18T12:59:29.050Z,124.35
2023-03-18T13:02:13.232Z,129.45
2023-03-18T13:04:49.989Z,116.03
2023-03-18T13:07:24.046Z,113.53
2023-03-18T13:09:59.457Z,120.40
2023-03-18T13:12:31.623Z,128.55
2023-03-18T13:15:03.448Z,123.40
2023-03-18T13:17:34.067Z,124.03
2023-03-18T13:20:03.616Z,124.22
2023-03-18T13:23:01.761Z,126.95
2023-03-18T13:25:37.852Z,123.72
2023-03-18T13:28:17.334Z,119.75
2023-03-18T13:30:59.264Z,121.45
2023-03-18T13:33:58.630Z,128.23
2023-03-18T13:36:43.565Z,127.05
2023-03-18T13:39:24.355Z,122.18
2023-03-18T13:42:19.961Z,128.10
2023-03-18T13:44:55.210Z,110.18
2023-03-18T13:47:25.508Z,120.30
2023-03-18T13:50:01.140Z,126.75
2023-03-18T13:52:36.978Z,127.03
2023-03-18T13:55:09.051Z,116.68
2023-03-18T13:57:48.514Z,123.32
2023-03-18T14:00:30.427Z,126.35
2023-03-18T14:03:07.268Z,128.68
2023-03-18T14:05:41.662Z,119.00
2023-03-18T14:08:35.188Z,122.80
2023-03-18T14:11:51.152Z,120.32
2023-03-18T14:14:56.685Z,118.90
2023-03-18T14:17:33.500Z,115.47
2023-03-18T14:20:21.385Z,113.10
2023-03-18T14:22:51.150Z,111.38
2023-03-18T14:25:37.556Z,112.75
2023-03-18T14:28:21.410Z,107.75
2023-03-18T14:30:57.008Z,116.55
2023-03-18T14:33:34.363Z,106.43
2023-03-18T14:36:09.806Z,111.32
2023-03-18T14:38:43.390Z,100.90
2023-03-18T14:41:22.372Z,106.55
2023-03-18T14:44:07.588Z,107.57
2023-03-18T14:46:41.276Z,119.18
2023-03-18T14:49:42.811Z,110.30
2023-03-18T14:52:24.030Z,115.60
2023-03-18T14:54:55.013Z,109.20
2023-03-18T14:57:23.234Z,113.95
2023-03-18T14:59:51.433Z,118.65
2023-03-18T15:02:26.923Z,114.28
2023-03-18T15:04:57.051Z,112.82
2023-03-18T15:07:35.311Z,112.72
2023-03-18T15:10:08.602Z,102.80
2023-03-18T15:12:37.224Z,107.00
2023-03-18T15:15:05.476Z,113.95
2023-03-18T15:17:33.392Z,103.78
2023-03-18T15:20:01.630Z,106.70
2023-03-18T15:22:34.726Z,102.60
2023-03-18T15:25:05.748Z,107.75
2023-03-18T15:27:35.862Z,110.60
2023-03-18T15:30:06.674Z,117.85
2023-03-18T15:32:45.494Z,124.78
2023-03-18T15:35:18.288Z,109.05
2023-03-18T15:38:03.112Z,110.43
2023-03-18T15:40:32.821Z,110.20
2023-03-18T15:43:06.831Z,104.47
2023-03-18T15:45:35.449Z,105.07
2023-03-18T15:48:08.883Z,110.93
2023-03-18T15:50:37.212Z,106.15
2023-03-18T15:53:21.472Z,104.00
2023-03-18T15:55:51.416Z,101.88
2023-03-18T15:58:23.816Z,103.32
2023-03-18T16:00:52.488Z,105.63
2023-03-18T16:03:23.361Z,107.38
2023-03-18T16:05:52.852Z,112.45
2023-03-18T16:08:23.652Z,107.65
2023-03-18T16:10:54.595Z,104.28
2023-03-18T16:13:25.067Z,101.60
2023-03-18T16:15:53.924Z,106.97
2023-03-18T16:18:22.673Z,109.45
2023-03-18T16:20:51.323Z,97.93
2023-03-18T16:23:19.623Z,99.10
2023-03-18T16:25:51.029Z,123.90
2023-03-18T16:28:21.267Z,115.25
2023-03-18T16:30:51.995Z,117.78
2023-03-18T16:33:21.578Z,114.18
2023-03-18T16:35:58.436Z,123.53
2023-03-18T16:38:26.979Z,118.95
2023-03-18T16:40:57.499Z,129.18
2023-03-18T16:43:28.019Z,121.93
2023-03-18T16:45:59.346Z,119.60
2023-03-18T16:48:27.977Z,124.30
2023-03-18T16:50:57.219Z,136.40
2023-03-18T16:53:28.568Z,125.10
2023-03-18T16:55:59.813Z,129.50
2023-03-18T16:58:31.309Z,125.30
2023-03-18T17:00:59.945Z,122.47
2023-03-18T17:03:29.274Z,135.20
2023-03-18T17:05:57.326Z,133.15
2023-03-18T17:08:25.034Z,147.05
2023-03-18T17:11:01.648Z,159.00
2023-03-18T17:13:32.199Z,172.52
2023-03-18T17:15:59.864Z,184.52
2023-03-18T17:18:28.004Z,174.75
2023-03-18T17:20:55.779Z,172.70
2023-03-18T17:23:26.991Z,183.10
2023-03-18T17:25:56.733Z,188.38
2023-03-18T17:28:31.149Z,181.32
2023-03-18T17:30:58.849Z,180.68
2023-03-18T17:33:28.927Z,162.82
2023-03-18T17:35:56.876Z,158.40
2023-03-18T17:38:24.835Z,146.25
2023-03-18T17:40:52.779Z,152.45
2023-03-18T17:43:27.464Z,167.68
2023-03-18T17:45:57.323Z,146.20
2023-03-18T17:48:27.276Z,163.70
2023-03-18T17:50:57.339Z,132.57
2023-03-18T17:53:28.442Z,138.15
2023-03-18T17:55:57.131Z,142.60
2023-03-18T17:58:27.355Z,145.80
2023-03-18T18:01:02.198Z,141.27
2023-03-18T18:03:31.170Z,126.95
2023-03-18T18:06:00.172Z,135.30
2023-03-18T18:08:30.183Z,145.32
2023-03-18T18:11:04.174Z,145.60
2023-03-18T18:13:32.246Z,150.25
2023-03-18T18:16:01.298Z,136.88
2023-03-18T18:18:29.433Z,145.82
2023-03-18T18:20:58.972Z,143.85
2023-03-18T18:23:30.248Z,144.07
2023-03-18T18:25:59.796Z,136.05
2023-03-18T18:28:32.869Z,154.80
2023-03-18T18:31:03.402Z,145.90
2023-03-18T18:33:32.166Z,132.57
2023-03-18T18:35:59.962Z,148.27
2023-03-18T18:38:28.344Z,144.98
2023-03-18T18:40:57.383Z,142.75
2023-03-18T18:43:26.286Z,142.73
2023-03-18T18:45:55.805Z,144.70
2023-03-18T18:48:29.798Z,139.15
2023-03-18T18:50:58.483Z,142.68
2023-03-18T18:53:28.078Z,159.98
2023-03-18T18:55:58.100Z,162.38
2023-03-18T18:58:29.686Z,153.77
2023-03-18T19:00:58.050Z,150.63
2023-03-18T19:03:31.419Z,151.20
2023-03-18T19:06:00.871Z,149.63
2023-03-18T19:08:31.649Z,139.90
2023-03-18T19:11:01.317Z,139.32
2023-03-18T19:13:30.965Z,149.30
2023-03-18T19:16:01.855Z,140.98
2023-03-18T19:18:36.086Z,144.57
2023-03-18T19:21:03.770Z,139.65
2023-03-18T19:23:33.185Z,140.43
2023-03-18T19:26:02.136Z,146.88
2023-03-18T19:28:58.411Z,140.18
2023-03-18T19:31:31.171Z,130.23
2023-03-18T19:34:02.120Z,151.32
2023-03-18T19:36:32.512Z,159.80
2023-03-18T19:39:01.935Z,143.40
2023-03-18T19:41:30.204Z,158.63
2023-03-18T19:44:03.783Z,150.57
2023-03-18T19:46:36.952Z,153.52
2023-03-18T19:49:12.698Z,149.80
2023-03-18T19:51:40.366Z,158.43
2023-03-18T19:54:23.481Z,153.70
2023-03-18T19:56:52.539Z,153.13
2023-03-18T19:59:22.755Z,148.40
2023-03-18T20:01:51.399Z,157.23
2023-03-18T20:04:21.535Z,163.48
2023-03-18T20:06:50.296Z,153.73
2023-03-18T20:09:18.674Z,161.25
2023-03-18T20:11:47.649Z,152.98
2023-03-18T20:14:22.834Z,165.00
2023-03-18T20:16:50.494Z,165.40
2023-03-18T20:19:18.118Z,163.38
2023-03-18T20:21:48.638Z,165.52
2023-03-18T20:24:19.972Z,168.90
2023-03-18T20:26:47.709Z,153.75
2023-03-18T20:29:17.894Z,164.10
2023-03-18T20:31:45.852Z,150.55
2023-03-18T20:34:13.844Z,156.68
2023-03-18T20:36:42.005Z,170.15
2023-03-18T20:39:19.775Z,161.43
2023-03-18T20:41:47.533Z,159.88
2023-03-18T20:44:15.284Z,162.30
2023-03-18T20:46:43.168Z,173.35
2023-03-18T20:49:10.877Z,161.18
2023-03-18T20:51:41.068Z,163.07
2023-03-18T20:54:18.619Z,174.05
2023-03-18T20:56:46.640Z,156.55
2023-03-18T20:59:14.662Z,165.73
2023-03-18T21:01:42.796Z,159.75
2023-03-18T21:04:12.659Z,171.57
2023-03-18T21:06:41.241Z,165.38
2023-03-18T21:09:10.026Z,173.20
2023-03-18T21:11:39.131Z,180.07
2023-03-18T21:14:06.768Z,176.23
2023-03-18T21:16:37.589Z,185.95
2023-03-18T21:19:05.526Z,188.05
2023-03-18T21:21:38.249Z,175.40
2023-03-18T21:24:23.571Z,181.45
2023-03-18T21:27:03.792Z,168.25
2023-03-18T21:29:32.724Z,172.05
2023-03-18T21:32:02.372Z,190.10
2023-03-18T21:34:30.432Z,182.00
2023-03-18T21:36:58.057Z,192.60
2023-03-18T21:39:25.839Z,183.25
2023-03-18T21:41:55.055Z,185.77
2023-03-18T21:44:22.839Z,190.20
2023-03-18T21:46:50.414Z,178.60
2023-03-18T21:49:17.991Z,183.40
2023-03-18T21:51:45.628Z,197.02
2023-03-18T21:54:18.932Z,193.85
2023-03-18T21:56:46.704Z,198.90
2023-03-18T21:59:15.857Z,187.40
2023-03-18T22:01:43.850Z,184.13
2023-03-18T22:04:12.562Z,195.50
2023-03-18T22:06:40.343Z,190.13
2023-03-18T22:09:08.620Z,180.02
2023-03-18T22:11:36.309Z,179.75
2023-03-18T22:14:03.928Z,178.95
2023-03-18T22:16:32.990Z,179.10
2023-03-18T22:19:00.737Z,187.57
2023-03-18T22:21:29.314Z,190.13
2023-03-18T22:23:58.076Z,183.60
2023-03-18T22:26:25.801Z,187.63
2023-03-18T22:28:53.471Z,182.57
2023-03-18T22:31:23.971Z,177.38
2023-03-18T22:33:53.451Z,179.55
2023-03-18T22:36:22.575Z,180.80
2023-03-18T22:38:50.400Z,185.05
2023-03-18T22:41:21.963Z,191.20
2023-03-18T22:43:50.259Z,188.10
2023-03-18T22:46:18.052Z,187.90
2023-03-18T22:48:45.978Z,195.30
2023-03-18T22:51:22.884Z,202.20
2023-03-18T22:53:52.468Z,192.13
2023-03-18T22:56:21.147Z,190.57
2023-03-18T22:58:48.841Z,209.07
2023-03-18T23:01:18.703Z,219.90
2023-03-18T23:03:47.326Z,199.40
2023-03-18T23:06:16.665Z,201.03
2023-03-18T23:08:46.490Z,216.93
2023-03-18T23:11:15.095Z,221.63
2023-03-18T23:13:44.212Z,206.13
2023-03-18T23:16:16.373Z,223.47
2023-03-18T23:18:44.182Z,200.77
2023-03-18T23:21:17.347Z,200.93
2023-03-18T23:23:46.407Z,216.57
2023-03-18T23:26:14.120Z,214.03
2023-03-18T23:28:44.990Z,223.37
2023-03-18T23:31:13.375Z,225.70
2023-03-18T23:33:41.189Z,224.87
2023-03-18T23:36:09.703Z,230.63
2023-03-18T23:38:37.915Z,223.03
2023-03-18T23:41:07.319Z,214.17
2023-03-18T23:43:35.012Z,211.50
2023-03-18T23:46:03.613Z,219.57
2023-03-18T23:48:31.858Z,235.93
2023-03-18T23:50:59.553Z,220.70
2023-03-18T23:53:27.264Z,212.03
2023-03-18T23:55:54.868Z,223.27
2023-03-18T23:58:23.813Z,219.07
